sensor_id;sensor_type;location;lat;lon;timestamp;pressure;altitude;pressure_sealevel;temperature;humidity
81476;BME280;70891;52.540;5.504;2023-07-08T00:02:11;101963.97;;;16.62;77.02
81476;BME280;70891;52.540;5.504;2023-07-08T00:04:40;101966.72;;;16.62;76.87
81476;BME280;70891;52.540;5.504;2023-07-08T00:07:11;101965.88;;;16.61;77.02
81476;BME280;70891;52.540;5.504;2023-07-08T00:09:38;101948.41;;;16.74;75.69
81476;BME280;70891;52.540;5.504;2023-07-08T00:12:08;101956.88;;;16.79;75.80
81476;BME280;70891;52.540;5.504;2023-07-08T00:14:35;101947.31;;;16.82;75.26
81476;BME280;70891;52.540;5.504;2023-07-08T00:17:00;101941.28;;;16.91;74.69
81476;BME280;70891;52.540;5.504;2023-07-08T00:19:25;101939.38;;;16.92;75.00
81476;BME280;70891;52.540;5.504;2023-07-08T00:21:50;101940.41;;;16.73;77.27
81476;BME280;70891;52.540;5.504;2023-07-08T00:24:18;101941.66;;;16.77;75.81
81476;BME280;70891;52.540;5.504;2023-07-08T00:26:44;101939.09;;;16.75;75.83
81476;BME280;70891;52.540;5.504;2023-07-08T00:29:09;101941.13;;;16.86;75.24
81476;BME280;70891;52.540;5.504;2023-07-08T00:31:41;101938.38;;;16.86;74.69
81476;BME280;70891;52.540;5.504;2023-07-08T00:34:06;101943.66;;;16.88;75.46
81476;BME280;70891;52.540;5.504;2023-07-08T00:36:31;101938.13;;;16.88;74.07
81476;BME280;70891;52.540;5.504;2023-07-08T00:38:57;101933.47;;;16.88;74.02
81476;BME280;70891;52.540;5.504;2023-07-08T00:41:27;101940.56;;;16.78;75.81
81476;BME280;70891;52.540;5.504;2023-07-08T00:43:57;101940.44;;;16.66;76.06
81476;BME280;70891;52.540;5.504;2023-07-08T00:52:18;101938.25;;;16.75;74.89
81476;BME280;70891;52.540;5.504;2023-07-08T00:54:44;101924.41;;;16.63;74.91
81476;BME280;70891;52.540;5.504;2023-07-08T00:57:10;101925.28;;;16.50;76.59
81476;BME280;70891;52.540;5.504;2023-07-08T00:59:43;101936.63;;;16.36;77.07
81476;BME280;70891;52.540;5.504;2023-07-08T01:02:12;101925.41;;;16.31;76.59
81476;BME280;70891;52.540;5.504;2023-07-08T01:04:50;101921.63;;;16.25;76.81
81476;BME280;70891;52.540;5.504;2023-07-08T01:07:18;101921.16;;;16.35;76.26
81476;BME280;70891;52.540;5.504;2023-07-08T01:09:48;101922.66;;;16.31;77.16
81476;BME280;70891;52.540;5.504;2023-07-08T01:12:19;101921.19;;;16.28;76.60
81476;BME280;70891;52.540;5.504;2023-07-08T01:14:46;101919.91;;;16.31;77.82
81476;BME280;70891;52.540;5.504;2023-07-08T01:17:13;101907.66;;;16.33;76.31
81476;BME280;70891;52.540;5.504;2023-07-08T01:19:39;101921.84;;;16.30;76.74
81476;BME280;70891;52.540;5.504;2023-07-08T01:22:06;101915.31;;;16.25;76.42
81476;BME280;70891;52.540;5.504;2023-07-08T01:24:37;101920.00;;;16.18;76.75
81476;BME280;70891;52.540;5.504;2023-07-08T01:27:06;101918.34;;;16.17;76.70
81476;BME280;70891;52.540;5.504;2023-07-08T01:29:32;101919.16;;;16.17;76.92
81476;BME280;70891;52.540;5.504;2023-07-08T01:31:58;101903.59;;;16.04;76.90
81476;BME280;70891;52.540;5.504;2023-07-08T01:34:28;101906.25;;;16.18;77.66
81476;BME280;70891;52.540;5.504;2023-07-08T01:36:55;101907.72;;;16.20;76.73
81476;BME280;70891;52.540;5.504;2023-07-08T01:39:23;101898.88;;;16.12;77.23
81476;BME280;70891;52.540;5.504;2023-07-08T01:41:49;101895.06;;;16.13;76.71
81476;BME280;70891;52.540;5.504;2023-07-08T01:44:28;101893.19;;;16.06;77.37
81476;BME280;70891;52.540;5.504;2023-07-08T01:46:58;101893.03;;;16.01;77.75
81476;BME280;70891;52.540;5.504;2023-07-08T01:49:25;101900.25;;;15.96;78.35
81476;BME280;70891;52.540;5.504;2023-07-08T01:51:50;101898.16;;;15.91;77.97
81476;BME280;70891;52.540;5.504;2023-07-08T01:54:16;101892.69;;;15.85;77.60
81476;BME280;70891;52.540;5.504;2023-07-08T01:56:41;101885.28;;;15.85;77.98
81476;BME280;70891;52.540;5.504;2023-07-08T01:59:07;101880.88;;;15.84;78.22
81476;BME280;70891;52.540;5.504;2023-07-08T02:01:32;101877.66;;;15.87;78.02
81476;BME280;70891;52.540;5.504;2023-07-08T02:03:57;101886.56;;;15.83;78.44
81476;BME280;70891;52.540;5.504;2023-07-08T02:06:22;101884.00;;;15.88;77.78
81476;BME280;70891;52.540;5.504;2023-07-08T02:08:48;101880.63;;;15.92;77.41
81476;BME280;70891;52.540;5.504;2023-07-08T02:11:15;101869.81;;;15.91;76.76
81476;BME280;70891;52.540;5.504;2023-07-08T02:13:40;101869.41;;;15.87;78.02
81476;BME280;70891;52.540;5.504;2023-07-08T02:16:08;101867.13;;;15.84;77.63
81476;BME280;70891;52.540;5.504;2023-07-08T02:18:34;101857.53;;;15.93;76.25
81476;BME280;70891;52.540;5.504;2023-07-08T02:20:59;101864.38;;;15.84;77.77
81476;BME280;70891;52.540;5.504;2023-07-08T02:23:25;101858.22;;;15.89;77.02
81476;BME280;70891;52.540;5.504;2023-07-08T02:25:52;101859.50;;;15.86;77.00
81476;BME280;70891;52.540;5.504;2023-07-08T02:28:17;101853.56;;;15.89;75.86
81476;BME280;70891;52.540;5.504;2023-07-08T02:30:43;101854.63;;;15.82;76.70
81476;BME280;70891;52.540;5.504;2023-07-08T02:33:08;101845.78;;;15.80;77.05
81476;BME280;70891;52.540;5.504;2023-07-08T02:35:35;101852.13;;;15.80;77.03
81476;BME280;70891;52.540;5.504;2023-07-08T02:38:00;101840.13;;;15.68;77.50
81476;BME280;70891;52.540;5.504;2023-07-08T02:40:26;101836.94;;;15.71;77.08
81476;BME280;70891;52.540;5.504;2023-07-08T02:42:51;101838.41;;;15.74;76.63
81476;BME280;70891;52.540;5.504;2023-07-08T02:45:18;101827.41;;;15.74;77.11
81476;BME280;70891;52.540;5.504;2023-07-08T02:47:43;101825.06;;;15.77;76.56
81476;BME280;70891;52.540;5.504;2023-07-08T02:50:10;101826.59;;;15.73;77.13
81476;BME280;70891;52.540;5.504;2023-07-08T02:52:36;101832.53;;;15.70;77.54
81476;BME280;70891;52.540;5.504;2023-07-08T02:55:01;101827.06;;;15.64;77.38
81476;BME280;70891;52.540;5.504;2023-07-08T02:57:27;101832.91;;;15.74;77.14
81476;BME280;70891;52.540;5.504;2023-07-08T02:59:52;101827.22;;;15.75;76.52
81476;BME280;70891;52.540;5.504;2023-07-08T03:02:18;101824.63;;;15.87;76.23
81476;BME280;70891;52.540;5.504;2023-07-08T03:04:43;101825.44;;;15.87;75.58
81476;BME280;70891;52.540;5.504;2023-07-08T03:07:09;101830.56;;;15.77;76.46
81476;BME280;70891;52.540;5.504;2023-07-08T03:09:37;101828.25;;;15.74;76.33
81476;BME280;70891;52.540;5.504;2023-07-08T03:12:05;101825.50;;;15.74;76.36
81476;BME280;70891;52.540;5.504;2023-07-08T03:14:33;101817.69;;;15.71;76.99
81476;BME280;70891;52.540;5.504;2023-07-08T03:16:59;101825.50;;;15.74;75.89
81476;BME280;70891;52.540;5.504;2023-07-08T03:19:24;101817.88;;;15.76;75.80
81476;BME280;70891;52.540;5.504;2023-07-08T03:21:51;101810.66;;;15.82;75.52
81476;BME280;70891;52.540;5.504;2023-07-08T03:24:16;101818.13;;;15.75;76.14
81476;BME280;70891;52.540;5.504;2023-07-08T03:26:46;101805.00;;;15.77;75.96
81476;BME280;70891;52.540;5.504;2023-07-08T03:29:16;101815.78;;;15.78;75.43
81476;BME280;70891;52.540;5.504;2023-07-08T03:31:42;101819.38;;;15.79;75.99
81476;BME280;70891;52.540;5.504;2023-07-08T03:34:12;101825.75;;;15.73;75.71
81476;BME280;70891;52.540;5.504;2023-07-08T03:36:46;101826.34;;;15.75;75.44
81476;BME280;70891;52.540;5.504;2023-07-08T03:39:15;101814.13;;;15.71;76.80
81476;BME280;70891;52.540;5.504;2023-07-08T03:41:40;101814.59;;;15.61;77.55
81476;BME280;70891;52.540;5.504;2023-07-08T03:44:06;101814.63;;;15.55;77.49
81476;BME280;70891;52.540;5.504;2023-07-08T03:46:31;101811.66;;;15.56;76.73
81476;BME280;70891;52.540;5.504;2023-07-08T03:48:56;101816.72;;;15.59;76.16
81476;BME280;70891;52.540;5.504;2023-07-08T03:51:24;101819.03;;;15.62;76.59
81476;BME280;70891;52.540;5.504;2023-07-08T03:53:51;101824.34;;;15.57;77.17
81476;BME280;70891;52.540;5.504;2023-07-08T03:56:17;101819.28;;;15.54;76.82
81476;BME280;70891;52.540;5.504;2023-07-08T03:58:42;101824.13;;;15.59;76.81
81476;BME280;70891;52.540;5.504;2023-07-08T04:01:14;101821.19;;;15.54;76.34
81476;BME280;70891;52.540;5.504;2023-07-08T04:03:40;101820.75;;;15.57;76.57
81476;BME280;70891;52.540;5.504;2023-07-08T04:06:05;101829.44;;;15.54;76.82
81476;BME280;70891;52.540;5.504;2023-07-08T04:08:31;101822.28;;;15.46;78.09
81476;BME280;70891;52.540;5.504;2023-07-08T04:10:56;101824.38;;;15.51;76.86
81476;BME280;70891;52.540;5.504;2023-07-08T04:13:21;101824.75;;;15.61;75.91
81476;BME280;70891;52.540;5.504;2023-07-08T04:15:54;101835.09;;;15.65;76.36
81476;BME280;70891;52.540;5.504;2023-07-08T04:18:21;101826.63;;;15.60;76.25
81476;BME280;70891;52.540;5.504;2023-07-08T04:20:46;101828.94;;;15.63;76.79
81476;BME280;70891;52.540;5.504;2023-07-08T04:23:20;101837.63;;;15.67;76.01
81476;BME280;70891;52.540;5.504;2023-07-08T04:25:47;101841.66;;;15.64;77.06
81476;BME280;70891;52.540;5.504;2023-07-08T04:28:14;101839.94;;;15.63;75.98
81476;BME280;70891;52.540;5.504;2023-07-08T04:30:39;101837.38;;;15.68;75.51
81476;BME280;70891;52.540;5.504;2023-07-08T04:33:11;101838.63;;;15.72;75.92
81476;BME280;70891;52.540;5.504;2023-07-08T04:35:38;101839.06;;;15.76;75.60
81476;BME280;70891;52.540;5.504;2023-07-08T04:38:09;101836.91;;;15.84;75.04
81476;BME280;70891;52.540;5.504;2023-07-08T04:40:39;101829.25;;;15.86;75.21
81476;BME280;70891;52.540;5.504;2023-07-08T04:43:07;101833.28;;;15.84;76.16
81476;BME280;70891;52.540;5.504;2023-07-08T04:45:33;101822.25;;;15.90;75.34
81476;BME280;70891;52.540;5.504;2023-07-08T04:47:59;101821.53;;;16.01;74.91
81476;BME280;70891;52.540;5.504;2023-07-08T04:50:24;101825.53;;;16.05;75.25
81476;BME280;70891;52.540;5.504;2023-07-08T04:52:50;101818.91;;;16.13;74.14
81476;BME280;70891;52.540;5.504;2023-07-08T04:55:15;101826.94;;;16.15;74.26
81476;BME280;70891;52.540;5.504;2023-07-08T04:57:41;101825.84;;;16.22;74.62
81476;BME280;70891;52.540;5.504;2023-07-08T05:00:09;101823.03;;;16.29;74.49
81476;BME280;70891;52.540;5.504;2023-07-08T05:02:38;101825.06;;;16.40;74.86
81476;BME280;70891;52.540;5.504;2023-07-08T05:05:04;101825.44;;;16.43;73.72
81476;BME280;70891;52.540;5.504;2023-07-08T05:07:29;101823.28;;;16.52;73.67
81476;BME280;70891;52.540;5.504;2023-07-08T05:09:54;101822.72;;;16.68;72.56
81476;BME280;70891;52.540;5.504;2023-07-08T05:12:20;101821.69;;;16.87;73.15
81476;BME280;70891;52.540;5.504;2023-07-08T05:14:45;101827.66;;;17.02;72.48
81476;BME280;70891;52.540;5.504;2023-07-08T05:17:10;101822.97;;;17.21;70.50
81476;BME280;70891;52.540;5.504;2023-07-08T05:19:36;101825.25;;;17.42;69.60
81476;BME280;70891;52.540;5.504;2023-07-08T05:22:01;101828.41;;;17.64;69.20
81476;BME280;70891;52.540;5.504;2023-07-08T05:24:27;101817.94;;;17.84;69.07
81476;BME280;70891;52.540;5.504;2023-07-08T05:26:52;101819.19;;;18.00;68.31
81476;BME280;70891;52.540;5.504;2023-07-08T05:29:18;101824.63;;;18.06;67.64
81476;BME280;70891;52.540;5.504;2023-07-08T05:31:43;101820.47;;;18.15;66.77
81476;BME280;70891;52.540;5.504;2023-07-08T05:34:08;101823.81;;;18.17;67.65
81476;BME280;70891;52.540;5.504;2023-07-08T05:36:34;101825.06;;;18.44;67.13
81476;BME280;70891;52.540;5.504;2023-07-08T05:38:59;101826.66;;;18.75;65.83
81476;BME280;70891;52.540;5.504;2023-07-08T05:41:25;101817.78;;;18.73;66.54
81476;BME280;70891;52.540;5.504;2023-07-08T05:43:50;101822.22;;;18.86;64.59
81476;BME280;70891;52.540;5.504;2023-07-08T05:46:15;101819.56;;;19.02;64.88
81476;BME280;70891;52.540;5.504;2023-07-08T05:48:41;101812.94;;;19.27;63.53
81476;BME280;70891;52.540;5.504;2023-07-08T05:51:06;101814.22;;;19.24;64.93
81476;BME280;70891;52.540;5.504;2023-07-08T05:53:32;101803.63;;;19.56;63.01
81476;BME280;70891;52.540;5.504;2023-07-08T05:55:57;101807.25;;;19.73;62.04
81476;BME280;70891;52.540;5.504;2023-07-08T05:58:22;101813.97;;;19.77;62.30
81476;BME280;70891;52.540;5.504;2023-07-08T06:00:55;101816.34;;;19.85;62.42
81476;BME280;70891;52.540;5.504;2023-07-08T06:03:20;101800.44;;;20.09;61.23
81476;BME280;70891;52.540;5.504;2023-07-08T06:05:46;101800.59;;;20.47;59.81
81476;BME280;70891;52.540;5.504;2023-07-08T06:08:11;101804.59;;;20.73;60.45
81476;BME280;70891;52.540;5.504;2023-07-08T06:10:42;101803.84;;;20.77;61.04
81476;BME280;70891;52.540;5.504;2023-07-08T06:13:07;101796.38;;;20.78;58.76
81476;BME280;70891;52.540;5.504;2023-07-08T06:15:33;101803.03;;;21.15;58.95
81476;BME280;70891;52.540;5.504;2023-07-08T06:17:58;101805.91;;;21.25;58.60
81476;BME280;70891;52.540;5.504;2023-07-08T06:20:27;101798.66;;;21.41;58.06
81476;BME280;70891;52.540;5.504;2023-07-08T06:22:53;101795.09;;;21.46;56.14
81476;BME280;70891;52.540;5.504;2023-07-08T06:25:18;101796.75;;;21.68;56.52
81476;BME280;70891;52.540;5.504;2023-07-08T06:27:44;101791.56;;;21.77;55.32
81476;BME280;70891;52.540;5.504;2023-07-08T06:30:09;101783.84;;;22.06;56.49
81476;BME280;70891;52.540;5.504;2023-07-08T06:32:35;101790.78;;;22.40;nan
81476;BME280;70891;52.540;5.504;2023-07-08T06:35:00;101785.56;;;22.43;54.82
81476;BME280;70891;52.540;5.504;2023-07-08T06:37:25;101786.50;;;22.96;56.07
81476;BME280;70891;52.540;5.504;2023-07-08T06:39:51;101786.72;;;22.84;51.46
81476;BME280;70891;52.540;5.504;2023-07-08T06:42:16;101784.91;;;22.63;53.02
81476;BME280;70891;52.540;5.504;2023-07-08T06:44:41;101785.38;;;22.55;53.79
81476;BME280;70891;52.540;5.504;2023-07-08T06:47:15;101786.56;;;22.64;52.06
81476;BME280;70891;52.540;5.504;2023-07-08T06:49:40;101784.75;;;22.80;52.87
81476;BME280;70891;52.540;5.504;2023-07-08T06:52:06;101793.53;;;23.08;52.71
81476;BME280;70891;52.540;5.504;2023-07-08T06:54:31;101791.44;;;23.36;54.64
81476;BME280;70891;52.540;5.504;2023-07-08T06:56:57;101786.56;;;23.68;49.92
81476;BME280;70891;52.540;5.504;2023-07-08T06:59:22;101784.38;;;23.90;49.71
81476;BME280;70891;52.540;5.504;2023-07-08T07:01:47;101789.97;;;24.05;50.89
81476;BME280;70891;52.540;5.504;2023-07-08T07:04:13;101781.66;;;24.31;50.18
81476;BME280;70891;52.540;5.504;2023-07-08T07:06:38;101785.25;;;24.46;49.39
81476;BME280;70891;52.540;5.504;2023-07-08T07:09:03;101799.44;;;25.00;51.51
81476;BME280;70891;52.540;5.504;2023-07-08T07:11:29;101789.16;;;24.75;46.39
81476;BME280;70891;52.540;5.504;2023-07-08T07:13:54;101793.91;;;24.50;49.44
81476;BME280;70891;52.540;5.504;2023-07-08T07:16:19;101782.19;;;24.83;50.48
81476;BME280;70891;52.540;5.504;2023-07-08T07:18:45;101784.72;;;24.49;48.81
81476;BME280;70891;52.540;5.504;2023-07-08T07:21:10;101773.03;;;24.12;48.29
81476;BME280;70891;52.540;5.504;2023-07-08T07:23:35;101779.97;;;24.50;48.42
81476;BME280;70891;52.540;5.504;2023-07-08T07:26:01;101775.41;;;25.14;50.88
81476;BME280;70891;52.540;5.504;2023-07-08T07:28:28;101784.56;;;25.25;49.16
81476;BME280;70891;52.540;5.504;2023-07-08T07:30:58;101786.22;;;25.31;51.03
81476;BME280;70891;52.540;5.504;2023-07-08T07:33:23;101790.75;;;25.22;47.91
81476;BME280;70891;52.540;5.504;2023-07-08T07:35:49;101786.72;;;25.43;46.05
81476;BME280;70891;52.540;5.504;2023-07-08T07:38:15;101795.25;;;24.98;46.71
81476;BME280;70891;52.540;5.504;2023-07-08T07:40:40;101801.63;;;25.18;46.46
81476;BME280;70891;52.540;5.504;2023-07-08T07:43:06;101799.41;;;25.10;48.73
81476;BME280;70891;52.540;5.504;2023-07-08T07:45:31;101807.66;;;25.45;50.77
81476;BME280;70891;52.540;5.504;2023-07-08T07:47:57;101799.13;;;26.25;47.29
81476;BME280;70891;52.540;5.504;2023-07-08T07:50:22;101796.97;;;26.17;44.11
81476;BME280;70891;52.540;5.504;2023-07-08T07:52:47;101796.94;;;25.73;45.21
81476;BME280;70891;52.540;5.504;2023-07-08T07:55:13;101795.88;;;25.59;47.75
81476;BME280;70891;52.540;5.504;2023-07-08T07:57:38;101778.91;;;26.38;48.45
81476;BME280;70891;52.540;5.504;2023-07-08T08:00:04;101784.31;;;27.34;47.43
81476;BME280;70891;52.540;5.504;2023-07-08T08:02:30;101776.44;;;27.12;44.81
81476;BME280;70891;52.540;5.504;2023-07-08T08:04:55;101786.44;;;27.47;43.08
81476;BME280;70891;52.540;5.504;2023-07-08T08:07:21;101786.44;;;27.66;46.12
81476;BME280;70891;52.540;5.504;2023-07-08T08:09:46;101782.88;;;27.60;40.15
81476;BME280;70891;52.540;5.504;2023-07-08T08:12:11;101780.88;;;27.42;40.43
81476;BME280;70891;52.540;5.504;2023-07-08T08:14:38;101779.19;;;28.02;45.85
81476;BME280;70891;52.540;5.504;2023-07-08T08:17:04;101782.06;;;28.34;41.86
81476;BME280;70891;52.540;5.504;2023-07-08T08:19:29;101790.78;;;28.47;42.42
81476;BME280;70891;52.540;5.504;2023-07-08T08:21:54;101794.88;;;28.03;40.12
81476;BME280;70891;52.540;5.504;2023-07-08T08:24:20;101799.53;;;27.70;40.48
81476;BME280;70891;52.540;5.504;2023-07-08T08:26:45;101787.22;;;27.71;45.38
81476;BME280;70891;52.540;5.504;2023-07-08T08:29:11;101778.16;;;27.56;41.47
81476;BME280;70891;52.540;5.504;2023-07-08T08:31:36;101783.72;;;27.80;40.58
81476;BME280;70891;52.540;5.504;2023-07-08T08:34:02;101787.69;;;28.48;42.68
81476;BME280;70891;52.540;5.504;2023-07-08T08:36:27;101782.38;;;28.47;39.54
81476;BME280;70891;52.540;5.504;2023-07-08T08:38:52;101777.81;;;28.69;41.70
81476;BME280;70891;52.540;5.504;2023-07-08T08:41:29;101774.34;;;29.95;41.83
81476;BME280;70891;52.540;5.504;2023-07-08T08:43:55;101777.97;;;29.95;39.87
81476;BME280;70891;52.540;5.504;2023-07-08T08:46:38;101773.56;;;29.67;39.33
81476;BME280;70891;52.540;5.504;2023-07-08T08:49:27;101774.06;;;29.69;40.21
81476;BME280;70891;52.540;5.504;2023-07-08T08:51:56;101771.94;;;29.25;36.34
81476;BME280;70891;52.540;5.504;2023-07-08T08:54:23;101774.75;;;29.39;37.61
81476;BME280;70891;52.540;5.504;2023-07-08T08:57:20;101775.94;;;29.60;39.82
81476;BME280;70891;52.540;5.504;2023-07-08T08:59:53;101775.84;;;30.37;38.90
81476;BME280;70891;52.540;5.504;2023-07-08T09:02:48;101781.28;;;30.86;38.67
81476;BME280;70891;52.540;5.504;2023-07-08T09:05:18;101778.31;;;31.22;39.01
81476;BME280;70891;52.540;5.504;2023-07-08T09:07:58;101782.13;;;30.87;34.56
81476;BME280;70891;52.540;5.504;2023-07-08T09:13:00;101777.22;;;30.03;37.22
81476;BME280;70891;52.540;5.504;2023-07-08T09:15:28;101777.09;;;29.86;40.22
81476;BME280;70891;52.540;5.504;2023-07-08T09:17:57;101781.41;;;31.03;39.68
81476;BME280;70891;52.540;5.504;2023-07-08T09:20:27;101775.69;;;30.64;35.47
81476;BME280;70891;52.540;5.504;2023-07-08T09:23:22;101775.94;;;30.76;36.02
81476;BME280;70891;52.540;5.504;2023-07-08T09:25:59;101778.41;;;31.00;40.21
81476;BME280;70891;52.540;5.504;2023-07-08T09:28:42;101776.38;;;30.70;36.00
81476;BME280;70891;52.540;5.504;2023-07-08T09:31:11;101774.47;;;30.79;36.26
81476;BME280;70891;52.540;5.504;2023-07-08T09:33:42;101783.41;;;31.11;38.27
81476;BME280;70891;52.540;5.504;2023-07-08T09:36:19;101777.31;;;30.87;36.55
81476;BME280;70891;52.540;5.504;2023-07-08T09:38:50;101781.47;;;30.59;36.70
81476;BME280;70891;52.540;5.504;2023-07-08T09:41:30;101775.75;;;30.73;35.52
81476;BME280;70891;52.540;5.504;2023-07-08T09:44:13;101777.09;;;30.75;37.32
81476;BME280;70891;52.540;5.504;2023-07-08T09:46:39;101774.41;;;30.70;37.00
81476;BME280;70891;52.540;5.504;2023-07-08T09:49:28;101782.50;;;30.94;36.28
81476;BME280;70891;52.540;5.504;2023-07-08T09:51:55;101775.81;;;31.68;35.05
81476;BME280;70891;52.540;5.504;2023-07-08T09:54:22;101773.78;;;31.12;33.54
81476;BME280;70891;52.540;5.504;2023-07-08T09:56:57;101775.44;;;31.61;34.44
81476;BME280;70891;52.540;5.504;2023-07-08T09:59:28;101779.44;;;31.77;34.70
81476;BME280;70891;52.540;5.504;2023-07-08T10:01:55;101780.97;;;32.44;35.36
81476;BME280;70891;52.540;5.504;2023-07-08T10:04:21;101775.84;;;32.03;34.35
81476;BME280;70891;52.540;5.504;2023-07-08T10:06:47;101780.28;;;32.47;36.76
81476;BME280;70891;52.540;5.504;2023-07-08T10:09:14;101783.28;;;32.59;32.65
81476;BME280;70891;52.540;5.504;2023-07-08T10:11:48;101781.63;;;32.49;33.46
81476;BME280;70891;52.540;5.504;2023-07-08T10:14:37;101783.63;;;33.12;33.11
81476;BME280;70891;52.540;5.504;2023-07-08T10:17:13;101790.84;;;33.30;33.81
81476;BME280;70891;52.540;5.504;2023-07-08T10:19:40;101788.72;;;32.72;31.28
81476;BME280;70891;52.540;5.504;2023-07-08T10:22:18;101786.13;;;33.05;38.91
81476;BME280;70891;52.540;5.504;2023-07-08T10:25:24;101786.13;;;33.43;33.91
81476;BME280;70891;52.540;5.504;2023-07-08T10:28:19;101772.63;;;33.98;31.24
81476;BME280;70891;52.540;5.504;2023-07-08T10:30:56;101779.38;;;34.06;35.50
81476;BME280;70891;52.540;5.504;2023-07-08T10:36:30;101773.16;;;33.13;31.23
81476;BME280;70891;52.540;5.504;2023-07-08T10:39:19;101778.66;;;33.68;35.59
81476;BME280;70891;52.540;5.504;2023-07-08T10:42:21;101775.19;;;33.91;32.05
81476;BME280;70891;52.540;5.504;2023-07-08T10:45:15;101773.53;;;33.90;32.14
81476;BME280;70891;52.540;5.504;2023-07-08T10:47:54;101767.56;;;33.63;36.05
81476;BME280;70891;52.540;5.504;2023-07-08T10:55:29;101772.06;;;34.05;31.00
81476;BME280;70891;52.540;5.504;2023-07-08T11:00:45;101772.47;;;34.69;30.55
81476;BME280;70891;52.540;5.504;2023-07-08T11:03:36;101765.97;;;34.56;32.79
81476;BME280;70891;52.540;5.504;2023-07-08T11:06:12;101769.56;;;34.03;30.24
81476;BME280;70891;52.540;5.504;2023-07-08T11:09:01;101767.31;;;34.18;33.47
81476;BME280;70891;52.540;5.504;2023-07-08T11:14:12;101762.47;;;34.84;36.47
81476;BME280;70891;52.540;5.504;2023-07-08T11:16:47;101748.38;;;35.08;29.57
81476;BME280;70891;52.540;5.504;2023-07-08T11:19:17;101756.28;;;35.91;29.90
81476;BME280;70891;52.540;5.504;2023-07-08T11:21:47;101752.13;;;35.48;28.82
81476;BME280;70891;52.540;5.504;2023-07-08T11:24:28;101743.63;;;34.55;29.74
81476;BME280;70891;52.540;5.504;2023-07-08T11:27:00;101743.25;;;34.44;29.31
81476;BME280;70891;52.540;5.504;2023-07-08T11:29:54;101739.88;;;34.18;32.02
81476;BME280;70891;52.540;5.504;2023-07-08T11:32:23;101744.78;;;34.42;32.72
81476;BME280;70891;52.540;5.504;2023-07-08T11:34:52;101742.09;;;35.02;30.35
81476;BME280;70891;52.540;5.504;2023-07-08T11:37:20;101735.84;;;35.33;30.82
81476;BME280;70891;52.540;5.504;2023-07-08T11:40:00;101739.25;;;35.63;33.31
81476;BME280;70891;52.540;5.504;2023-07-08T11:45:00;101744.47;;;36.56;31.73
81476;BME280;70891;52.540;5.504;2023-07-08T11:47:38;101735.06;;;36.68;29.81
81476;BME280;70891;52.540;5.504;2023-07-08T11:50:24;101737.16;;;36.55;31.08
81476;BME280;70891;52.540;5.504;2023-07-08T11:52:58;101738.19;;;35.31;26.89
81476;BME280;70891;52.540;5.504;2023-07-08T11:55:36;101740.38;;;35.86;31.91
81476;BME280;70891;52.540;5.504;2023-07-08T11:58:07;101738.63;;;35.69;29.58
81476;BME280;70891;52.540;5.504;2023-07-08T12:00:33;101726.38;;;35.65;25.91
81476;BME280;70891;52.540;5.504;2023-07-08T12:03:18;101719.78;;;35.37;28.44
81476;BME280;70891;52.540;5.504;2023-07-08T12:05:44;101715.66;;;35.47;29.41
81476;BME280;70891;52.540;5.504;2023-07-08T12:08:17;101727.31;;;35.97;30.12
81476;BME280;70891;52.540;5.504;2023-07-08T12:10:49;101719.31;;;35.59;31.00
81476;BME280;70891;52.540;5.504;2023-07-08T12:13:17;101711.66;;;35.36;27.95
81476;BME280;70891;52.540;5.504;2023-07-08T12:15:43;101715.28;;;35.36;27.12
81476;BME280;70891;52.540;5.504;2023-07-08T12:18:22;101727.22;;;35.94;29.18
81476;BME280;70891;52.540;5.504;2023-07-08T12:20:57;101713.63;;;36.27;26.70
81476;BME280;70891;52.540;5.504;2023-07-08T12:23:24;101716.31;;;36.35;29.62
81476;BME280;70891;52.540;5.504;2023-07-08T12:25:51;101719.06;;;35.52;27.29
81476;BME280;70891;52.540;5.504;2023-07-08T12:28:17;101710.91;;;35.51;30.89
81476;BME280;70891;52.540;5.504;2023-07-08T12:30:44;101712.53;;;35.76;30.09
81476;BME280;70891;52.540;5.504;2023-07-08T12:33:13;101711.63;;;36.27;30.96
81476;BME280;70891;52.540;5.504;2023-07-08T12:35:40;101700.81;;;36.33;27.63
81476;BME280;70891;52.540;5.504;2023-07-08T12:40:46;101696.31;;;35.12;27.76
81476;BME280;70891;52.540;5.504;2023-07-08T12:43:12;101688.16;;;34.87;26.04
81476;BME280;70891;52.540;5.504;2023-07-08T12:45:38;101691.09;;;35.26;29.04
81476;BME280;70891;52.540;5.504;2023-07-08T12:48:03;101696.34;;;35.76;28.04
81476;BME280;70891;52.540;5.504;2023-07-08T12:50:29;101689.34;;;34.98;29.29
81476;BME280;70891;52.540;5.504;2023-07-08T12:52:54;101694.53;;;35.20;33.02
81476;BME280;70891;52.540;5.504;2023-07-08T12:55:21;101698.16;;;35.57;31.90
81476;BME280;70891;52.540;5.504;2023-07-08T12:57:50;101694.00;;;35.66;28.63
81476;BME280;70891;52.540;5.504;2023-07-08T13:00:23;101691.81;;;35.36;28.07
81476;BME280;70891;52.540;5.504;2023-07-08T13:02:57;101687.91;;;34.80;33.39
81476;BME280;70891;52.540;5.504;2023-07-08T13:05:24;101685.34;;;35.11;34.59
81476;BME280;70891;52.540;5.504;2023-07-08T13:07:50;101688.28;;;35.14;33.39
81476;BME280;70891;52.540;5.504;2023-07-08T13:10:21;101694.78;;;35.15;30.22
81476;BME280;70891;52.540;5.504;2023-07-08T13:12:53;101682.00;;;34.97;28.11
81476;BME280;70891;52.540;5.504;2023-07-08T13:15:28;101687.75;;;35.49;31.95
81476;BME280;70891;52.540;5.504;2023-07-08T13:17:54;101691.69;;;35.32;26.94
81476;BME280;70891;52.540;5.504;2023-07-08T13:20:20;101692.41;;;35.05;34.78
81476;BME280;70891;52.540;5.504;2023-07-08T13:22:53;101681.88;;;34.69;27.41
81476;BME280;70891;52.540;5.504;2023-07-08T13:25:20;101691.47;;;34.89;30.11
81476;BME280;70891;52.540;5.504;2023-07-08T13:28:16;101684.84;;;34.97;29.17